sensor_id;sensor_type;location;lat;lon;timestamp;P1;durP1;ratioP1;P2;durP2;ratioP2
4867;SDS011;2448;48.086;10.862;2023-03-31T00:00:39;13.20;;;3.33;;
4867;SDS011;2448;48.086;10.862;2023-03-31T00:03:05;4.80;;;3.70;;
4867;SDS011;2448;48.086;10.862;2023-03-31T00:05:37;4.50;;;3.87;;
4867;SDS011;2448;48.086;10.862;2023-03-31T00:08:02;8.67;;;3.77;;
4867;SDS011;2448;48.086;10.862;2023-03-31T00:10:28;8.20;;;4.37;;
4867;SDS011;2448;48.086;10.862;2023-03-31T00:12:56;3.70;;;3.40;;
4867;SDS011;2448;48.086;10.862;2023-03-31T00:15:21;4.20;;;3.37;;
4867;SDS011;2448;48.086;10.862;2023-03-31T00:17:47;3.53;;;3.20;;
4867;SDS011;2448;48.086;10.862;2023-03-31T00:20:12;4.07;;;3.67;;
4867;SDS011;2448;48.086;10.862;2023-03-31T00:22:39;4.10;;;3.33;;
4867;SDS011;2448;48.086;10.862;2023-03-31T00:25:07;4.40;;;3.70;;
4867;SDS011;2448;48.086;10.862;2023-03-31T00:27:32;6.47;;;3.70;;
4867;SDS011;2448;48.086;10.862;2023-03-31T00:29:58;4.53;;;3.63;;
4867;SDS011;2448;48.086;10.862;2023-03-31T00:32:23;10.30;;;4.10;;
4867;SDS011;2448;48.086;10.862;2023-03-31T00:34:50;4.47;;;4.00;;
4867;SDS011;2448;48.086;10.862;2023-03-31T00:37:16;7.53;;;3.60;;
4867;SDS011;2448;48.086;10.862;2023-03-31T00:39:43;7.07;;;3.50;;
4867;SDS011;2448;48.086;10.862;2023-03-31T00:42:11;4.30;;;4.00;;
4867;SDS011;2448;48.086;10.862;2023-03-31T00:47:24;4.90;;;3.30;;
4867;SDS011;2448;48.086;10.862;2023-03-31T00:49:50;4.07;;;3.20;;
4867;SDS011;2448;48.086;10.862;2023-03-31T00:52:31;6.83;;;4.00;;
4867;SDS011;2448;48.086;10.862;2023-03-31T00:55:05;4.73;;;4.10;;
4867;SDS011;2448;48.086;10.862;2023-03-31T00:57:33;6.70;;;3.40;;
4867;SDS011;2448;48.086;10.862;2023-03-31T01:00:04;4.63;;;3.63;;
4867;SDS011;2448;48.086;10.862;2023-03-31T01:02:38;3.40;;;3.20;;
4867;SDS011;2448;48.086;10.862;2023-03-31T01:05:05;5.90;;;3.20;;
4867;SDS011;2448;48.086;10.862;2023-03-31T01:07:37;4.67;;;3.77;;
4867;SDS011;2448;48.086;10.862;2023-03-31T01:10:05;8.13;;;3.90;;
4867;SDS011;2448;48.086;10.862;2023-03-31T01:12:31;6.93;;;3.70;;
4867;SDS011;2448;48.086;10.862;2023-03-31T01:14:58;6.07;;;3.83;;
4867;SDS011;2448;48.086;10.862;2023-03-31T01:17:24;5.90;;;3.33;;
4867;SDS011;2448;48.086;10.862;2023-03-31T01:28:04;3.37;;;2.97;;
4867;SDS011;2448;48.086;10.862;2023-03-31T01:40:48;4.77;;;3.77;;
4867;SDS011;2448;48.086;10.862;2023-03-31T01:43:25;14.90;;;3.97;;
4867;SDS011;2448;48.086;10.862;2023-03-31T01:46:15;3.40;;;3.10;;
4867;SDS011;2448;48.086;10.862;2023-03-31T01:48:54;5.77;;;3.27;;
4867;SDS011;2448;48.086;10.862;2023-03-31T01:51:44;7.23;;;3.90;;
4867;SDS011;2448;48.086;10.862;2023-03-31T01:56:49;4.80;;;3.80;;
4867;SDS011;2448;48.086;10.862;2023-03-31T01:59:18;6.57;;;3.20;;
4867;SDS011;2448;48.086;10.862;2023-03-31T02:02:07;9.10;;;4.37;;
4867;SDS011;2448;48.086;10.862;2023-03-31T02:04:38;3.47;;;3.10;;
4867;SDS011;2448;48.086;10.862;2023-03-31T02:07:17;6.37;;;4.00;;
4867;SDS011;2448;48.086;10.862;2023-03-31T02:09:44;8.97;;;3.77;;
4867;SDS011;2448;48.086;10.862;2023-03-31T02:12:11;7.70;;;3.83;;
4867;SDS011;2448;48.086;10.862;2023-03-31T02:14:39;6.83;;;4.03;;
4867;SDS011;2448;48.086;10.862;2023-03-31T02:17:06;4.37;;;3.50;;
4867;SDS011;2448;48.086;10.862;2023-03-31T02:19:35;3.77;;;3.47;;
4867;SDS011;2448;48.086;10.862;2023-03-31T02:22:03;9.27;;;3.93;;
4867;SDS011;2448;48.086;10.862;2023-03-31T02:24:29;5.20;;;3.37;;
4867;SDS011;2448;48.086;10.862;2023-03-31T02:29:40;16.03;;;3.40;;
4867;SDS011;2448;48.086;10.862;2023-03-31T02:32:11;3.40;;;2.73;;
4867;SDS011;2448;48.086;10.862;2023-03-31T02:34:39;3.73;;;3.13;;
4867;SDS011;2448;48.086;10.862;2023-03-31T02:37:04;6.80;;;2.90;;
4867;SDS011;2448;48.086;10.862;2023-03-31T02:39:32;3.07;;;2.77;;
4867;SDS011;2448;48.086;10.862;2023-03-31T02:41:58;4.53;;;3.27;;
4867;SDS011;2448;48.086;10.862;2023-03-31T02:44:26;3.20;;;2.90;;
4867;SDS011;2448;48.086;10.862;2023-03-31T02:46:51;3.93;;;2.87;;
4867;SDS011;2448;48.086;10.862;2023-03-31T02:49:17;8.27;;;5.00;;
4867;SDS011;2448;48.086;10.862;2023-03-31T03:04:36;5.23;;;3.17;;
4867;SDS011;2448;48.086;10.862;2023-03-31T03:07:12;3.10;;;2.80;;
4867;SDS011;2448;48.086;10.862;2023-03-31T03:12:26;4.63;;;2.60;;
4867;SDS011;2448;48.086;10.862;2023-03-31T03:15:03;8.63;;;3.70;;
4867;SDS011;2448;48.086;10.862;2023-03-31T03:17:39;3.63;;;3.30;;
4867;SDS011;2448;48.086;10.862;2023-03-31T03:20:06;2.60;;;2.40;;
4867;SDS011;2448;48.086;10.862;2023-03-31T03:22:33;3.60;;;3.00;;
4867;SDS011;2448;48.086;10.862;2023-03-31T03:24:59;9.83;;;3.20;;
4867;SDS011;2448;48.086;10.862;2023-03-31T03:27:24;3.83;;;3.40;;
4867;SDS011;2448;48.086;10.862;2023-03-31T03:29:50;5.70;;;3.10;;
4867;SDS011;2448;48.086;10.862;2023-03-31T03:32:15;11.83;;;2.90;;
4867;SDS011;2448;48.086;10.862;2023-03-31T03:34:41;5.20;;;3.20;;
4867;SDS011;2448;48.086;10.862;2023-03-31T03:37:06;3.63;;;3.33;;
4867;SDS011;2448;48.086;10.862;2023-03-31T03:39:32;6.17;;;3.00;;
4867;SDS011;2448;48.086;10.862;2023-03-31T03:41:57;5.97;;;3.43;;
4867;SDS011;2448;48.086;10.862;2023-03-31T03:44:23;8.00;;;4.87;;
4867;SDS011;2448;48.086;10.862;2023-03-31T03:46:48;5.27;;;3.70;;
4867;SDS011;2448;48.086;10.862;2023-03-31T03:49:13;8.90;;;3.87;;
4867;SDS011;2448;48.086;10.862;2023-03-31T03:51:39;7.30;;;3.67;;
4867;SDS011;2448;48.086;10.862;2023-03-31T03:54:04;7.30;;;3.50;;
4867;SDS011;2448;48.086;10.862;2023-03-31T03:56:29;6.70;;;3.37;;
4867;SDS011;2448;48.086;10.862;2023-03-31T03:58:55;7.07;;;3.77;;
4867;SDS011;2448;48.086;10.862;2023-03-31T04:01:21;6.60;;;3.60;;
4867;SDS011;2448;48.086;10.862;2023-03-31T04:03:47;3.93;;;3.10;;
4867;SDS011;2448;48.086;10.862;2023-03-31T04:06:12;10.50;;;3.70;;
4867;SDS011;2448;48.086;10.862;2023-03-31T04:08:37;3.37;;;2.87;;
4867;SDS011;2448;48.086;10.862;2023-03-31T04:11:03;4.13;;;3.77;;
4867;SDS011;2448;48.086;10.862;2023-03-31T04:13:33;8.83;;;3.13;;
4867;SDS011;2448;48.086;10.862;2023-03-31T04:15:59;4.57;;;3.87;;
4867;SDS011;2448;48.086;10.862;2023-03-31T04:18:24;6.30;;;3.63;;
4867;SDS011;2448;48.086;10.862;2023-03-31T04:20:50;5.27;;;3.70;;
4867;SDS011;2448;48.086;10.862;2023-03-31T04:23:28;6.07;;;3.60;;
4867;SDS011;2448;48.086;10.862;2023-03-31T04:25:54;4.93;;;3.60;;
4867;SDS011;2448;48.086;10.862;2023-03-31T04:28:19;6.57;;;3.70;;
4867;SDS011;2448;48.086;10.862;2023-03-31T04:30:45;6.07;;;4.03;;
4867;SDS011;2448;48.086;10.862;2023-03-31T04:33:10;8.63;;;2.90;;
4867;SDS011;2448;48.086;10.862;2023-03-31T04:35:40;7.70;;;3.83;;
4867;SDS011;2448;48.086;10.862;2023-03-31T04:38:17;3.10;;;2.90;;
4867;SDS011;2448;48.086;10.862;2023-03-31T04:40:49;3.53;;;3.23;;
4867;SDS011;2448;48.086;10.862;2023-03-31T04:43:15;12.83;;;3.87;;
4867;SDS011;2448;48.086;10.862;2023-03-31T04:45:40;3.70;;;3.40;;
4867;SDS011;2448;48.086;10.862;2023-03-31T04:48:06;3.50;;;3.00;;
4867;SDS011;2448;48.086;10.862;2023-03-31T04:50:31;3.90;;;3.50;;
4867;SDS011;2448;48.086;10.862;2023-03-31T04:52:57;6.27;;;3.30;;
4867;SDS011;2448;48.086;10.862;2023-03-31T04:55:22;4.30;;;3.97;;
4867;SDS011;2448;48.086;10.862;2023-03-31T04:57:47;4.10;;;3.53;;
4867;SDS011;2448;48.086;10.862;2023-03-31T05:00:13;4.80;;;3.40;;
4867;SDS011;2448;48.086;10.862;2023-03-31T05:02:39;9.83;;;5.17;;
4867;SDS011;2448;48.086;10.862;2023-03-31T05:05:05;3.90;;;3.47;;
4867;SDS011;2448;48.086;10.862;2023-03-31T05:07:30;3.40;;;3.10;;
4867;SDS011;2448;48.086;10.862;2023-03-31T05:09:56;5.47;;;3.70;;
4867;SDS011;2448;48.086;10.862;2023-03-31T05:12:22;3.30;;;2.93;;
4867;SDS011;2448;48.086;10.862;2023-03-31T05:14:48;6.77;;;3.80;;
4867;SDS011;2448;48.086;10.862;2023-03-31T05:17:13;8.10;;;3.90;;
4867;SDS011;2448;48.086;10.862;2023-03-31T05:19:38;4.70;;;3.60;;
4867;SDS011;2448;48.086;10.862;2023-03-31T05:22:04;4.77;;;3.53;;
4867;SDS011;2448;48.086;10.862;2023-03-31T05:24:29;9.77;;;3.70;;
4867;SDS011;2448;48.086;10.862;2023-03-31T05:26:55;3.67;;;3.37;;
4867;SDS011;2448;48.086;10.862;2023-03-31T05:29:21;4.37;;;3.40;;
4867;SDS011;2448;48.086;10.862;2023-03-31T05:31:47;4.37;;;3.60;;
4867;SDS011;2448;48.086;10.862;2023-03-31T05:34:13;9.50;;;3.80;;
4867;SDS011;2448;48.086;10.862;2023-03-31T05:36:38;3.73;;;3.43;;
4867;SDS011;2448;48.086;10.862;2023-03-31T05:39:04;12.40;;;4.00;;
4867;SDS011;2448;48.086;10.862;2023-03-31T05:41:30;7.70;;;3.47;;
4867;SDS011;2448;48.086;10.862;2023-03-31T05:43:55;4.03;;;3.63;;
4867;SDS011;2448;48.086;10.862;2023-03-31T05:46:20;6.43;;;3.37;;
4867;SDS011;2448;48.086;10.862;2023-03-31T05:48:46;3.40;;;3.13;;
4867;SDS011;2448;48.086;10.862;2023-03-31T05:51:11;3.50;;;3.20;;
4867;SDS011;2448;48.086;10.862;2023-03-31T05:53:37;13.13;;;3.47;;
4867;SDS011;2448;48.086;10.862;2023-03-31T05:56:03;3.50;;;3.07;;
4867;SDS011;2448;48.086;10.862;2023-03-31T05:58:29;15.97;;;3.60;;
4867;SDS011;2448;48.086;10.862;2023-03-31T06:01:01;6.60;;;3.97;;
4867;SDS011;2448;48.086;10.862;2023-03-31T06:03:30;8.80;;;3.80;;
4867;SDS011;2448;48.086;10.862;2023-03-31T06:05:55;5.10;;;3.30;;
4867;SDS011;2448;48.086;10.862;2023-03-31T06:08:21;5.97;;;3.50;;
4867;SDS011;2448;48.086;10.862;2023-03-31T06:10:47;2.93;;;2.70;;
4867;SDS011;2448;48.086;10.862;2023-03-31T06:13:12;3.53;;;3.20;;
4867;SDS011;2448;48.086;10.862;2023-03-31T06:15:38;6.10;;;3.87;;
4867;SDS011;2448;48.086;10.862;2023-03-31T06:18:03;14.97;;;3.70;;
4867;SDS011;2448;48.086;10.862;2023-03-31T06:20:31;5.50;;;3.80;;
4867;SDS011;2448;48.086;10.862;2023-03-31T06:22:57;3.60;;;3.30;;
4867;SDS011;2448;48.086;10.862;2023-03-31T06:25:22;6.40;;;3.20;;
4867;SDS011;2448;48.086;10.862;2023-03-31T06:27:47;7.67;;;3.30;;
4867;SDS011;2448;48.086;10.862;2023-03-31T06:30:13;3.23;;;3.00;;
4867;SDS011;2448;48.086;10.862;2023-03-31T06:32:38;8.23;;;3.93;;
4867;SDS011;2448;48.086;10.862;2023-03-31T06:35:04;3.00;;;2.77;;
4867;SDS011;2448;48.086;10.862;2023-03-31T06:37:29;5.20;;;3.43;;
4867;SDS011;2448;48.086;10.862;2023-03-31T06:39:55;5.17;;;3.40;;
4867;SDS011;2448;48.086;10.862;2023-03-31T06:42:20;3.90;;;3.50;;
4867;SDS011;2448;48.086;10.862;2023-03-31T06:44:45;10.43;;;3.90;;
4867;SDS011;2448;48.086;10.862;2023-03-31T06:47:11;7.40;;;3.60;;
4867;SDS011;2448;48.086;10.862;2023-03-31T06:49:36;4.80;;;3.90;;
4867;SDS011;2448;48.086;10.862;2023-03-31T06:52:01;17.17;;;4.63;;
4867;SDS011;2448;48.086;10.862;2023-03-31T06:54:28;4.83;;;3.50;;
4867;SDS011;2448;48.086;10.862;2023-03-31T06:56:53;5.70;;;3.50;;
4867;SDS011;2448;48.086;10.862;2023-03-31T06:59:18;2.37;;;2.20;;
4867;SDS011;2448;48.086;10.862;2023-03-31T07:01:44;5.50;;;4.30;;
4867;SDS011;2448;48.086;10.862;2023-03-31T07:04:10;4.87;;;3.70;;
4867;SDS011;2448;48.086;10.862;2023-03-31T07:06:36;4.10;;;3.17;;
4867;SDS011;2448;48.086;10.862;2023-03-31T07:09:01;4.37;;;3.87;;
4867;SDS011;2448;48.086;10.862;2023-03-31T07:11:28;6.90;;;4.57;;
4867;SDS011;2448;48.086;10.862;2023-03-31T07:13:54;4.10;;;3.40;;
4867;SDS011;2448;48.086;10.862;2023-03-31T07:16:19;5.63;;;4.47;;
4867;SDS011;2448;48.086;10.862;2023-03-31T07:18:44;4.13;;;3.70;;
4867;SDS011;2448;48.086;10.862;2023-03-31T07:21:10;4.07;;;3.47;;
4867;SDS011;2448;48.086;10.862;2023-03-31T07:23:35;4.50;;;3.47;;
4867;SDS011;2448;48.086;10.862;2023-03-31T07:26:01;4.73;;;3.43;;
4867;SDS011;2448;48.086;10.862;2023-03-31T07:28:27;5.13;;;4.27;;
4867;SDS011;2448;48.086;10.862;2023-03-31T07:30:52;8.30;;;3.30;;
4867;SDS011;2448;48.086;10.862;2023-03-31T07:33:18;4.77;;;3.50;;
4867;SDS011;2448;48.086;10.862;2023-03-31T07:35:43;6.13;;;4.13;;
4867;SDS011;2448;48.086;10.862;2023-03-31T07:38:09;5.00;;;3.60;;
4867;SDS011;2448;48.086;10.862;2023-03-31T07:40:35;4.23;;;3.67;;
4867;SDS011;2448;48.086;10.862;2023-03-31T07:43:00;3.80;;;3.33;;
4867;SDS011;2448;48.086;10.862;2023-03-31T07:45:26;4.20;;;3.80;;
4867;SDS011;2448;48.086;10.862;2023-03-31T07:47:52;11.30;;;3.90;;
4867;SDS011;2448;48.086;10.862;2023-03-31T07:50:17;4.87;;;3.77;;
4867;SDS011;2448;48.086;10.862;2023-03-31T07:52:44;6.53;;;3.80;;
4867;SDS011;2448;48.086;10.862;2023-03-31T07:55:09;6.20;;;4.40;;
4867;SDS011;2448;48.086;10.862;2023-03-31T07:57:35;6.10;;;3.77;;
4867;SDS011;2448;48.086;10.862;2023-03-31T08:00:02;8.07;;;4.67;;
4867;SDS011;2448;48.086;10.862;2023-03-31T08:02:37;9.43;;;3.80;;
4867;SDS011;2448;48.086;10.862;2023-03-31T08:05:03;6.53;;;3.70;;
4867;SDS011;2448;48.086;10.862;2023-03-31T08:07:29;9.43;;;3.97;;
4867;SDS011;2448;48.086;10.862;2023-03-31T08:09:57;4.20;;;2.40;;
4867;SDS011;2448;48.086;10.862;2023-03-31T08:12:22;3.00;;;2.80;;
4867;SDS011;2448;48.086;10.862;2023-03-31T08:14:48;3.43;;;2.10;;
4867;SDS011;2448;48.086;10.862;2023-03-31T08:17:13;3.23;;;2.93;;
4867;SDS011;2448;48.086;10.862;2023-03-31T08:19:38;3.10;;;2.70;;
4867;SDS011;2448;48.086;10.862;2023-03-31T08:22:04;5.83;;;3.47;;
4867;SDS011;2448;48.086;10.862;2023-03-31T08:24:29;4.27;;;3.20;;
4867;SDS011;2448;48.086;10.862;2023-03-31T08:26:55;5.57;;;3.77;;
4867;SDS011;2448;48.086;10.862;2023-03-31T08:29:20;1.53;;;1.43;;
4867;SDS011;2448;48.086;10.862;2023-03-31T08:31:45;14.20;;;3.10;;
4867;SDS011;2448;48.086;10.862;2023-03-31T08:34:11;1.70;;;1.60;;
4867;SDS011;2448;48.086;10.862;2023-03-31T08:36:36;1.50;;;1.40;;
4867;SDS011;2448;48.086;10.862;2023-03-31T08:39:02;1.53;;;1.30;;
4867;SDS011;2448;48.086;10.862;2023-03-31T08:43:54;1.23;;;1.23;;
4867;SDS011;2448;48.086;10.862;2023-03-31T08:46:20;1.50;;;1.40;;
4867;SDS011;2448;48.086;10.862;2023-03-31T08:48:55;1.63;;;1.37;;
4867;SDS011;2448;48.086;10.862;2023-03-31T08:51:28;1.37;;;1.30;;
4867;SDS011;2448;48.086;10.862;2023-03-31T08:53:59;2.23;;;1.43;;
4867;SDS011;2448;48.086;10.862;2023-03-31T08:56:27;1.60;;;1.50;;
4867;SDS011;2448;48.086;10.862;2023-03-31T08:58:53;1.03;;;1.03;;
4867;SDS011;2448;48.086;10.862;2023-03-31T09:06:19;4.17;;;2.27;;
4867;SDS011;2448;48.086;10.862;2023-03-31T09:08:46;2.93;;;2.07;;
4867;SDS011;2448;48.086;10.862;2023-03-31T09:11:13;2.00;;;1.80;;
4867;SDS011;2448;48.086;10.862;2023-03-31T09:19:13;3.30;;;3.00;;
4867;SDS011;2448;48.086;10.862;2023-03-31T09:21:40;2.87;;;2.43;;
4867;SDS011;2448;48.086;10.862;2023-03-31T09:24:12;2.50;;;1.87;;
4867;SDS011;2448;48.086;10.862;2023-03-31T09:31:51;2.40;;;2.20;;
4867;SDS011;2448;48.086;10.862;2023-03-31T09:34:22;1.83;;;1.80;;
4867;SDS011;2448;48.086;10.862;2023-03-31T09:36:48;3.97;;;1.60;;
4867;SDS011;2448;48.086;10.862;2023-03-31T09:39:14;4.00;;;2.27;;
4867;SDS011;2448;48.086;10.862;2023-03-31T09:41:46;4.37;;;2.40;;
4867;SDS011;2448;48.086;10.862;2023-03-31T09:44:55;3.40;;;1.70;;
4867;SDS011;2448;48.086;10.862;2023-03-31T09:47:01;9.30;;;2.10;;
4867;SDS011;2448;48.086;10.862;2023-03-31T09:49:30;3.50;;;2.37;;
4867;SDS011;2448;48.086;10.862;2023-03-31T09:51:59;1.73;;;1.63;;
4867;SDS011;2448;48.086;10.862;2023-03-31T09:54:27;1.93;;;1.70;;
4867;SDS011;2448;48.086;10.862;2023-03-31T09:56:56;2.13;;;1.97;;
4867;SDS011;2448;48.086;10.862;2023-03-31T09:59:31;1.63;;;1.53;;
4867;SDS011;2448;48.086;10.862;2023-03-31T10:02:02;4.03;;;2.40;;
4867;SDS011;2448;48.086;10.862;2023-03-31T10:04:29;4.40;;;2.03;;
4867;SDS011;2448;48.086;10.862;2023-03-31T10:06:56;7.60;;;1.97;;
4867;SDS011;2448;48.086;10.862;2023-03-31T10:09:31;2.40;;;1.90;;
4867;SDS011;2448;48.086;10.862;2023-03-31T10:12:05;1.70;;;1.60;;
4867;SDS011;2448;48.086;10.862;2023-03-31T10:14:33;3.97;;;1.87;;
4867;SDS011;2448;48.086;10.862;2023-03-31T10:17:03;3.20;;;1.73;;
4867;SDS011;2448;48.086;10.862;2023-03-31T10:19:33;2.10;;;2.00;;
4867;SDS011;2448;48.086;10.862;2023-03-31T10:22:14;4.90;;;2.10;;
4867;SDS011;2448;48.086;10.862;2023-03-31T10:24:41;5.57;;;2.27;;
4867;SDS011;2448;48.086;10.862;2023-03-31T10:27:20;3.97;;;2.70;;
4867;SDS011;2448;48.086;10.862;2023-03-31T10:29:49;1.80;;;1.70;;
4867;SDS011;2448;48.086;10.862;2023-03-31T10:32:25;3.30;;;2.40;;
4867;SDS011;2448;48.086;10.862;2023-03-31T10:34:53;6.17;;;2.97;;
4867;SDS011;2448;48.086;10.862;2023-03-31T10:37:21;4.57;;;2.30;;
4867;SDS011;2448;48.086;10.862;2023-03-31T10:39:47;1.57;;;1.47;;
4867;SDS011;2448;48.086;10.862;2023-03-31T10:42:20;2.63;;;2.43;;
4867;SDS011;2448;48.086;10.862;2023-03-31T10:44:46;7.97;;;2.60;;
4867;SDS011;2448;48.086;10.862;2023-03-31T10:49:38;3.40;;;2.30;;
4867;SDS011;2448;48.086;10.862;2023-03-31T10:52:14;5.23;;;1.97;;
4867;SDS011;2448;48.086;10.862;2023-03-31T10:54:45;0.97;;;0.97;;
4867;SDS011;2448;48.086;10.862;2023-03-31T10:57:10;0.80;;;0.73;;
4867;SDS011;2448;48.086;10.862;2023-03-31T11:02:12;1.60;;;0.93;;
4867;SDS011;2448;48.086;10.862;2023-03-31T11:12:20;1.40;;;1.30;;
4867;SDS011;2448;48.086;10.862;2023-03-31T11:19:48;2.43;;;1.67;;
4867;SDS011;2448;48.086;10.862;2023-03-31T11:22:32;2.40;;;1.17;;
4867;SDS011;2448;48.086;10.862;2023-03-31T11:30:21;1.00;;;1.00;;
4867;SDS011;2448;48.086;10.862;2023-03-31T11:41:23;0.90;;;0.87;;
4867;SDS011;2448;48.086;10.862;2023-03-31T11:43:51;1.00;;;1.00;;
4867;SDS011;2448;48.086;10.862;2023-03-31T11:46:21;1.80;;;1.37;;
4867;SDS011;2448;48.086;10.862;2023-03-31T11:51:15;0.77;;;0.77;;
4867;SDS011;2448;48.086;10.862;2023-03-31T11:53:42;0.90;;;0.90;;
4867;SDS011;2448;48.086;10.862;2023-03-31T11:56:09;1.80;;;1.17;;
4867;SDS011;2448;48.086;10.862;2023-03-31T11:58:55;0.80;;;0.80;;
4867;SDS011;2448;48.086;10.862;2023-03-31T12:05:04;0.97;;;0.87;;
4867;SDS011;2448;48.086;10.862;2023-03-31T12:08:01;1.17;;;0.90;;
4867;SDS011;2448;48.086;10.862;2023-03-31T12:10:59;3.03;;;1.30;;
4867;SDS011;2448;48.086;10.862;2023-03-31T12:13:54;1.00;;;0.90;;
4867;SDS011;2448;48.086;10.862;2023-03-31T12:16:46;2.00;;;1.43;;
4867;SDS011;2448;48.086;10.862;2023-03-31T12:19:42;2.30;;;1.40;;
4867;SDS011;2448;48.086;10.862;2023-03-31T12:22:36;0.70;;;0.70;;
4867;SDS011;2448;48.086;10.862;2023-03-31T13:16:45;4.40;;;0.73;;
4867;SDS011;2448;48.086;10.862;2023-03-31T13:19:11;1.90;;;0.70;;
4867;SDS011;2448;48.086;10.862;2023-03-31T13:21:56;0.50;;;0.50;;
4867;SDS011;2448;48.086;10.862;2023-03-31T13:24:22;0.77;;;0.77;;
4867;SDS011;2448;48.086;10.862;2023-03-31T13:26:49;3.73;;;1.00;;
4867;SDS011;2448;48.086;10.862;2023-03-31T13:34:24;0.70;;;0.70;;
4867;SDS011;2448;48.086;10.862;2023-03-31T13:36:55;1.07;;;0.70;;
4867;SDS011;2448;48.086;10.862;2023-03-31T13:52:38;0.70;;;0.70;;
4867;SDS011;2448;48.086;10.862;2023-03-31T14:01:11;10.57;;;0.70;;
4867;SDS011;2448;48.086;10.862;2023-03-31T14:05:49;0.60;;;0.60;;
4867;SDS011;2448;48.086;10.862;2023-03-31T14:08:30;0.80;;;0.80;;
4867;SDS011;2448;48.086;10.862;2023-03-31T14:16:27;0.50;;;0.50;;
4867;SDS011;2448;48.086;10.862;2023-03-31T14:18:55;3.43;;;0.60;;
4867;SDS011;2448;48.086;10.862;2023-03-31T14:21:28;0.80;;;0.80;;
4867;SDS011;2448;48.086;10.862;2023-03-31T14:24:18;0.67;;;0.67;;
4867;SDS011;2448;48.086;10.862;2023-03-31T14:34:50;1.00;;;1.00;;
4867;SDS011;2448;48.086;10.862;2023-03-31T14:37:17;1.00;;;1.00;;
4867;SDS011;2448;48.086;10.862;2023-03-31T14:39:46;1.17;;;0.90;;
4867;SDS011;2448;48.086;10.862;2023-03-31T14:42:13;1.00;;;1.00;;
4867;SDS011;2448;48.086;10.862;2023-03-31T14:44:39;2.30;;;0.70;;
4867;SDS011;2448;48.086;10.862;2023-03-31T14:47:27;1.23;;;0.97;;
4867;SDS011;2448;48.086;10.862;2023-03-31T14:49:58;0.70;;;0.70;;
4867;SDS011;2448;48.086;10.862;2023-03-31T14:52:27;3.33;;;0.90;;
4867;SDS011;2448;48.086;10.862;2023-03-31T14:54:53;3.07;;;1.07;;
4867;SDS011;2448;48.086;10.862;2023-03-31T14:57:19;0.90;;;0.90;;
4867;SDS011;2448;48.086;10.862;2023-03-31T14:59:48;0.70;;;0.70;;
4867;SDS011;2448;48.086;10.862;2023-03-31T15:02:37;1.23;;;0.90;;
4867;SDS011;2448;48.086;10.862;2023-03-31T15:05:02;1.37;;;0.90;;
4867;SDS011;2448;48.086;10.862;2023-03-31T15:07:28;0.70;;;0.70;;
4867;SDS011;2448;48.086;10.862;2023-03-31T15:09:53;0.60;;;0.60;;
4867;SDS011;2448;48.086;10.862;2023-03-31T15:12:19;0.60;;;0.60;;
4867;SDS011;2448;48.086;10.862;2023-03-31T15:14:47;0.70;;;0.60;;
4867;SDS011;2448;48.086;10.862;2023-03-31T15:17:24;0.80;;;0.67;;
4867;SDS011;2448;48.086;10.862;2023-03-31T15:19:54;1.33;;;0.80;;
4867;SDS011;2448;48.086;10.862;2023-03-31T15:22:21;1.70;;;1.00;;
4867;SDS011;2448;48.086;10.862;2023-03-31T15:24:47;1.40;;;0.80;;
4867;SDS011;2448;48.086;10.862;2023-03-31T15:29:54;1.63;;;0.90;;
4867;SDS011;2448;48.086;10.862;2023-03-31T15:32:28;2.37;;;0.70;;
4867;SDS011;2448;48.086;10.862;2023-03-31T15:34:54;0.93;;;0.83;;
4867;SDS011;2448;48.086;10.862;2023-03-31T15:37:24;3.40;;;0.60;;
4867;SDS011;2448;48.086;10.862;2023-03-31T15:39:54;0.67;;;0.67;;
4867;SDS011;2448;48.086;10.862;2023-03-31T15:42:20;1.07;;;0.83;;
4867;SDS011;2448;48.086;10.862;2023-03-31T15:47:30;1.60;;;1.50;;
4867;SDS011;2448;48.086;10.862;2023-03-31T15:52:37;2.73;;;1.43;;
4867;SDS011;2448;48.086;10.862;2023-03-31T15:57:47;3.23;;;1.67;;
4867;SDS011;2448;48.086;10.862;2023-03-31T16:00:55;1.37;;;1.10;;
4867;SDS011;2448;48.086;10.862;2023-03-31T16:03:03;1.70;;;0.80;;
4867;SDS011;2448;48.086;10.862;2023-03-31T16:07:55;3.37;;;1.47;;
4867;SDS011;2448;48.086;10.862;2023-03-31T16:10:21;0.80;;;0.80;;
4867;SDS011;2448;48.086;10.862;2023-03-31T16:12:57;1.60;;;1.27;;
4867;SDS011;2448;48.086;10.862;2023-03-31T16:15:36;1.23;;;0.80;;
4867;SDS011;2448;48.086;10.862;2023-03-31T16:18:03;1.00;;;0.90;;
4867;SDS011;2448;48.086;10.862;2023-03-31T16:20:30;0.80;;;0.80;;
4867;SDS011;2448;48.086;10.862;2023-03-31T16:22:57;0.50;;;0.50;;
4867;SDS011;2448;48.086;10.862;2023-03-31T16:25:24;1.33;;;0.70;;
4867;SDS011;2448;48.086;10.862;2023-03-31T16:27:51;0.93;;;0.70;;
4867;SDS011;2448;48.086;10.862;2023-03-31T16:30:19;0.93;;;0.93;;
4867;SDS011;2448;48.086;10.862;2023-03-31T16:33:07;0.70;;;0.70;;
4867;SDS011;2448;48.086;10.862;2023-03-31T16:35:35;0.60;;;0.60;;
4867;SDS011;2448;48.086;10.862;2023-03-31T16:38:04;1.10;;;0.90;;
4867;SDS011;2448;48.086;10.862;2023-03-31T16:40:35;1.90;;;0.90;;
4867;SDS011;2448;48.086;10.862;2023-03-31T16:43:07;0.47;;;0.47;;
4867;SDS011;2448;48.086;10.862;2023-03-31T16:45:33;0.83;;;0.83;;
4867;SDS011;2448;48.086;10.862;2023-03-31T16:47:58;0.50;;;0.50;;
4867;SDS011;2448;48.086;10.862;2023-03-31T16:50:24;0.60;;;0.60;;
4867;SDS011;2448;48.086;10.862;2023-03-31T16:52:49;0.90;;;0.90;;
4867;SDS011;2448;48.086;10.862;2023-03-31T16:55:15;0.73;;;0.60;;
4867;SDS011;2448;48.086;10.862;2023-03-31T16:57:41;0.50;;;0.50;;
4867;SDS011;2448;48.086;10.862;2023-03-31T17:00:06;0.70;;;0.70;;
4867;SDS011;2448;48.086;10.862;2023-03-31T17:02:32;0.80;;;0.80;;
4867;SDS011;2448;48.086;10.862;2023-03-31T17:04:57;1.33;;;0.60;;
4867;SDS011;2448;48.086;10.862;2023-03-31T17:07:22;0.70;;;0.70;;
4867;SDS011;2448;48.086;10.862;2023-03-31T17:09:48;1.03;;;1.03;;
4867;SDS011;2448;48.086;10.862;2023-03-31T17:12:13;0.60;;;0.60;;
4867;SDS011;2448;48.086;10.862;2023-03-31T17:14:38;0.80;;;0.80;;
4867;SDS011;2448;48.086;10.862;2023-03-31T17:17:04;0.80;;;0.80;;
4867;SDS011;2448;48.086;10.862;2023-03-31T17:19:30;1.20;;;1.20;;
4867;SDS011;2448;48.086;10.862;2023-03-31T17:21:55;1.23;;;0.90;;
4867;SDS011;2448;48.086;10.862;2023-03-31T17:24:26;1.03;;;1.03;;
4867;SDS011;2448;48.086;10.862;2023-03-31T17:26:51;0.83;;;0.83;;
4867;SDS011;2448;48.086;10.862;2023-03-31T17:29:16;1.37;;;1.30;;
4867;SDS011;2448;48.086;10.862;2023-03-31T17:31:42;0.67;;;0.67;;
4867;SDS011;2448;48.086;10.862;2023-03-31T17:34:07;1.53;;;0.73;;
4867;SDS011;2448;48.086;10.862;2023-03-31T17:36:33;0.70;;;0.70;;
4867;SDS011;2448;48.086;10.862;2023-03-31T17:38:58;0.80;;;0.80;;
4867;SDS011;2448;48.086;10.862;2023-03-31T17:41:24;0.70;;;0.70;;
4867;SDS011;2448;48.086;10.862;2023-03-31T17:43:52;0.60;;;0.60;;
4867;SDS011;2448;48.086;10.862;2023-03-31T17:46:18;0.80;;;0.80;;
4867;SDS011;2448;48.086;10.862;2023-03-31T17:48:43;0.80;;;0.80;;
4867;SDS011;2448;48.086;10.862;2023-03-31T17:51:10;2.70;;;1.37;;
4867;SDS011;2448;48.086;10.862;2023-03-31T17:53:38;1.43;;;1.43;;
4867;SDS011;2448;48.086;10.862;2023-03-31T17:56:04;1.00;;;1.00;;
4867;SDS011;2448;48.086;10.862;2023-03-31T17:58:29;1.30;;;1.20;;
4867;SDS011;2448;48.086;10.862;2023-03-31T18:00:55;0.93;;;0.93;;
4867;SDS011;2448;48.086;10.862;2023-03-31T18:03:21;1.10;;;1.00;;
4867;SDS011;2448;48.086;10.862;2023-03-31T18:05:46;1.00;;;1.00;;
4867;SDS011;2448;48.086;10.862;2023-03-31T18:08:13;1.33;;;1.33;;
4867;SDS011;2448;48.086;10.862;2023-03-31T18:10:38;0.60;;;0.60;;
4867;SDS011;2448;48.086;10.862;2023-03-31T18:13:04;1.70;;;1.60;;
4867;SDS011;2448;48.086;10.862;2023-03-31T18:15:30;0.70;;;0.70;;
4867;SDS011;2448;48.086;10.862;2023-03-31T18:17:56;0.80;;;0.80;;
4867;SDS011;2448;48.086;10.862;2023-03-31T18:20:21;1.23;;;0.60;;
4867;SDS011;2448;48.086;10.862;2023-03-31T18:22:47;1.23;;;0.83;;
4867;SDS011;2448;48.086;10.862;2023-03-31T18:25:13;6.30;;;1.27;;
4867;SDS011;2448;48.086;10.862;2023-03-31T18:27:40;9.03;;;0.73;;
4867;SDS011;2448;48.086;10.862;2023-03-31T18:30:06;2.40;;;0.93;;